• Join FlightAware (Why Join?)
  • Login
  • US Flag 
07:19AM EDT


 

Airport Tracker/Info


-or-


 

Live Flight TrackerFlight Track Log ✈ GJS3647 ✈ 01-Jul-2013 ✈ KRDU - KORD

Flight Track Log - Related Links

Times and Time Zones

All times are in EDT time to prevent confusion due to time zone crossing. See the GJS3647 flight status page for this flight to view local times or setup timezone preferences in your user account.

Time Position Orientation Groundspeed Altitude Reporting Facility
EDT Latitude Longitude Course Direction KTS MPH feet Rate Location/Type
06:16AM 35.8664 -78.8139 270° West 169 194 1,300  Level Washington Center
06:18AM 35.8667 -78.8881 270° West 201 231 4,200 2,040 Climbing Washington Center
06:19AM 35.8894 -78.9661 290° West 214 246 6,100 2,280 Climbing Washington Center
06:20AM 35.9161 -79.0594 289° West 254 292 8,800 2,520 Climbing Washington Center
06:21AM 35.9444 -79.1556 290° West 295 339 11,100 2,100 Climbing Washington Center
06:22AM 35.9747 -79.2622 289° West 320 368 13,100 1,920 Climbing Washington Center
06:24AM 35.9817 -79.4961 272° West 352 405 16,900 2,040 Climbing Washington Center
06:25AM 36.0325 -79.6039 300° West 357 411 19,300 1,680 Climbing Washington Center
06:27AM 35.9803 -79.8433 255° West 350 403 22,300 1,320 Climbing Atlanta Center
06:28AM 35.9553 -79.9678 256° West 361 415 23,500 1,080 Climbing Atlanta Center
06:29AM 35.9247 -80.1156 256° West 384 442 24,500 900 Climbing Atlanta Center
06:30AM 35.9061 -80.2522 260° West 404 465 25,400 900 Climbing Atlanta Center
06:31AM 35.9786 -80.3772 306° West 408 470 26,300 840 Climbing Atlanta Center
06:32AM 36.0800 -80.4908 318° Northwest 443 510 27,100 960 Climbing Atlanta Center
06:33AM 36.1856 -80.6044 319° Northwest 469 540 28,300 960 Climbing Atlanta Center
06:34AM 36.2867 -80.7211 317° Northwest 490 564 29,100 660 Climbing Atlanta Center
06:35AM 36.3792 -80.8231 318° Northwest 490 564 29,700 600 Climbing Atlanta Center
06:36AM 36.4844 -80.9428 318° Northwest 495 570 30,400 660 Climbing Atlanta Center
06:37AM 36.5894 -81.0603 318° Northwest 500 575 31,100 720 Climbing Atlanta Center
06:38AM 36.6944 -81.1831 317° Northwest 511 588 31,900 840 Climbing Atlanta Center
06:39AM 36.8081 -81.3192 316° Northwest 511 588 32,800 780 Climbing Atlanta Center
06:40AM 36.8936 -81.4100 320° Northwest 522 601 33,400 900 Climbing Indianapolis Center
06:41AM 36.9989 -81.5311 317° Northwest 518 596 34,500 1,020 Climbing Indianapolis Center
06:42AM 37.1017 -81.6511 317° Northwest 509 586 35,500 900 Climbing Indianapolis Center
06:43AM 37.2047 -81.7708 317° Northwest 507 583 36,400 840 Climbing Indianapolis Center
06:44AM 37.3053 -81.8883 317° Northwest 497 572 37,300 780 Climbing Indianapolis Center
06:45AM 37.4050 -82.0061 317° Northwest 494 568 38,000 300 Climbing Indianapolis Center
06:46AM 37.5039 -82.1247 316° Northwest 493 567 38,000  Level Indianapolis Center
06:47AM 37.5928 -82.2867 305° West 483 556 38,000  Level Indianapolis Center
06:48AM 37.6681 -82.4267 304° West 484 557 38,000  Level Indianapolis Center
06:49AM 37.7422 -82.5619 305° West 473 544 38,000  Level Indianapolis Center
06:50AM 37.8361 -82.6869 314° West 491 565 38,000  Level Indianapolis Center
06:51AM 37.9300 -82.8139 313° West 494 568 38,000  Level Indianapolis Center
06:52AM 38.0381 -82.9311 320° Northwest 510 587 38,000  Level Indianapolis Center
06:53AM 38.1483 -83.0486 320° Northwest 517 595 38,000  Level Indianapolis Center
06:54AM 38.2597 -83.1661 320° Northwest 519 597 38,000  Level Indianapolis Center
06:55AM 38.3692 -83.2853 320° Northwest 518 596 38,000  Level Indianapolis Center
06:56AM 38.4794 -83.4042 320° Northwest 519 597 38,000  Level Indianapolis Center
06:57AM 38.5883 -83.5236 319° Northwest 517 595 38,000  Level Indianapolis Center
06:58AM 38.6942 -83.6397 319° Northwest 517 595 38,000  Level Indianapolis Center
06:59AM 38.8039 -83.7589 320° Northwest 513 590 38,000  Level Indianapolis Center
07:00AM 38.9136 -83.8792 320° Northwest 513 590 38,000 -120 Level Indianapolis Center
07:01AM 39.0225 -84.0006 319° Northwest 512 589 37,800 -660 Descending Indianapolis Center
07:02AM 39.1283 -84.1197 319° Northwest 503 579 36,700 -1,080 Descending Indianapolis Center
07:03AM 39.2342 -84.2378 319° Northwest 497 572 35,700 -1,320 Descending Indianapolis Center
07:04AM 39.3403 -84.3558 319° Northwest 499 574 34,100 -1,800 Descending Indianapolis Center
07:05AM 39.4439 -84.4733 319° Northwest 493 567 32,100 -2,040 Descending Indianapolis Center
07:06AM 39.5461 -84.5869 319° Northwest 483 556 30,000 -1,920 Descending Indianapolis Center
07:07AM 39.6442 -84.6969 319° Northwest 466 536 28,300 -1,020 Descending Indianapolis Center
07:08AM 39.7364 -84.8025 319° Northwest 445 512 28,000 -180 Descending Indianapolis Center
07:09AM 39.8344 -84.9153 319° Northwest 452 520 28,000  Level Indianapolis Center
07:10AM 39.9325 -85.0264 319° Northwest 467 537 28,000  Level Indianapolis Center
07:11AM 40.0319 -85.1406 319° Northwest 473 544 28,000 -240 Level Indianapolis Center
07:12AM 40.1272 -85.2514 318° Northwest 464 534 27,600 -840 Descending Indianapolis Center
07:13AM 40.2425 -85.3844 319° Northwest 464 534 26,400 -840 Descending Indianapolis Center
07:14AM 40.3339 -85.4950 317° Northwest 453 521 26,000 -600 Descending Indianapolis Center
07:15AM 40.4108 -85.6186 309° West 442 509 25,200 -1,020 Descending Indianapolis Center
07:16AM 40.4878 -85.7425 309° West 440 506 24,000 -1,080 Descending Indianapolis Center
07:17AM 40.5633 -85.8644 309° West 436 502 23,100 -960 Descending Indianapolis Center
07:18AM 40.6350 -85.9831 309° West 421 484 22,100 -600 Descending Indianapolis Center
07:19AM 40.7083 -86.1017 309° West 421 484 22,000 -60 Descending Indianapolis Center
07:20AM 40.7817 -86.2211 309° West 421 484 22,000  Level Indianapolis Center
07:21AM 40.8547 -86.3408 309° West 420 483 22,000 -60 Level Indianapolis Center
07:22AM 40.9278 -86.4631 308° West 424 488 21,900 -1,260 Descending Indianapolis Center
07:23AM 41.0133 -86.6050 309° West 411 473 19,500 -2,100 Descending Indianapolis Center
07:24AM 41.0828 -86.7197 309° West 403 464 17,700 -1,800 Descending Indianapolis Center
07:25AM 41.1489 -86.8325 308° West 397 457 15,900 -1,740 Descending Indianapolis Center
07:26AM 41.2131 -86.9403 308° West 387 445 14,200 -1,680 Descending Indianapolis Center